This is the latest recevied weather packets stored in our database for station/object DL1VED. If no packets are shown the sender has not sent any weather packets the latest 10 day(s).
| Time | Temp. | Humidity | Pressure | Rain* | Wind** | Luminosity | Snow |
|---|---|---|---|---|---|---|---|
| 1778263143 | 16.67° C | 47% | 1016 hPa | 0 mm | - | - | - |
| 1778262243 | 17.22° C | 45% | 1015.9 hPa | 0 mm | - | - | - |
| 1778261343 | 18.89° C | 41% | 1015.9 hPa | 0 mm | - | - | - |
| 1778260443 | 20° C | 39% | 1015.8 hPa | 0 mm | - | - | - |
| 1778259543 | 20.56° C | 38% | 1015.8 hPa | 0 mm | - | - | - |
| 1778258643 | 18.89° C | 42% | 1015.7 hPa | 0 mm | - | - | - |
| 1778257743 | 19.44° C | 40% | 1015.6 hPa | 0 mm | - | - | - |
| 1778256843 | 21.11° C | 37% | 1015.7 hPa | 0 mm | - | - | - |
| 1778255943 | 20.56° C | 38% | 1015.7 hPa | 0 mm | - | - | - |
| 1778255043 | 20° C | 40% | 1015.8 hPa | 0 mm | - | - | - |
| 1778254143 | 18.89° C | 42% | 1015.8 hPa | 0 mm | - | - | - |
| 1778253243 | 20° C | 39% | 1015.9 hPa | 0 mm | - | - | - |
| 1778252343 | 19.44° C | 42% | 1015.9 hPa | 0 mm | - | - | - |
| 1778251444 | 18.89° C | 43% | 1016.1 hPa | 0 mm | - | - | - |
| 1778250543 | 18.33° C | 42% | 1016.2 hPa | 0 mm | - | - | - |
| 1778249644 | 20° C | 41% | 1016.3 hPa | 0 mm | - | - | - |
| 1778248744 | 20° C | 38% | 1016.2 hPa | 0 mm | - | - | - |
| 1778247844 | 20° C | 39% | 1016.3 hPa | 0 mm | - | - | - |
| 1778246944 | 18.89° C | 43% | 1016.4 hPa | 0 mm | - | - | - |
| 1778246044 | 18.33° C | 43% | 1016.5 hPa | 0 mm | - | - | - |
| 1778245144 | 18.33° C | 43% | 1016.5 hPa | 0 mm | - | - | - |
| 1778244244 | 18.89° C | 42% | 1016.6 hPa | 0 mm | - | - | - |
| 1778243344 | 20° C | 41% | 1016.6 hPa | 0 mm | - | - | - |
| 1778242444 | 18.89° C | 42% | 1016.7 hPa | 0 mm | - | - | - |
| 1778241544 | 18.89° C | 43% | 1016.8 hPa | 0 mm | - | - | - |
* Rain latest hour (hover to see other rain measurements)
** Current wind speed in m/s (hover to see current wind gust speed)